MET'MAP v2.0
soon released !

Expected late october,
this new version will be
more efficient, smarter,
and hosted on a brand new
server x3 powerfull...
...and still free !


Not compatible ?
Try the mobile version !

LOG IN : | Subscribe | Disclaimer | Who is Orbifly ? |
ICAO code :

TAF - ETHF Fritzlar Airport - 15 Nov 2019 18:56 UTC
Data Sources :     NOAA   


- Airport Elevation : 1345 ft
- IATA code : FRZ
- No reported NOTAMs.


ETHF - Fritzlar Airport

Latest METAR recorded : 2015/08/11 07:20 ETHF 110720Z 36004KT 9999 SCT010 SCT016 21/16 Q1017 BLU+BLU+
TAF AMD TAF ETHF
Valid from the 15 at 09:00 until the 15 at 18:00 UTC


151040Z 1509/1518 07005KT 9999 NSW SCT015 BKN160
TEMPO 1509/1512 VRB03KT 9999 NSW BKN012 CANCEL 1100

Source NOAA


MET'MAP, your aeronautical weather chart ! - Copyright ORBIFLY December 2007

Programming & Development : Alexandra Zaïnal
Co-Developer : Marc-Olivier Méhu
Technical & hardware support : Manuel Goepfert
Concept & Financing : Baudouin d'Aumeries